Time;durP1;ratioP1;P1;durP2;ratioP2;P2;SDS_P1;SDS_P2;PMS_P1;PMS_P2;Temp;Humidity;BMP_temperature;BMP_pressure;BME280_temperature;BME280_humidity;BME280_pressure;Samples;Min_cycle;Max_cycle;Signal;HPM_P1;HPM_P2
2022/02/05 00:03:37;;;;;;;0.20;0.20;;;3.40;99.90;;;;;;5071557;28;20048;-81
2022/02/05 00:06:04;;;;;;;0.10;0.10;;;3.40;99.90;;;;;;5087264;28;20037;-81
2022/02/05 00:08:58;;;;;;;0.10;0.10;;;4.00;99.90;;;;;;5056745;28;20073;-81
2022/02/05 00:11:58;;;;;;;0.10;0.10;;;3.40;99.90;;;;;;5059596;28;20087;-85
2022/02/05 00:41:35;;;;;;;0.20;0.20;;;3.90;99.90;;;;;;5073455;28;20052;-85
2022/02/05 00:44:03;;;;;;;0.10;0.10;;;3.20;99.90;;;;;;5073409;28;20132;-85
2022/02/05 00:46:36;;;;;;;0.20;0.20;;;3.20;99.90;;;;;;5071894;28;20041;-81
2022/02/05 00:49:03;;;;;;;0.10;0.10;;;3.30;99.90;;;;;;5055752;28;20044;-85
2022/02/05 00:51:43;;;;;;;0.20;0.20;;;3.30;99.90;;;;;;5071409;28;20080;-81
2022/02/05 00:54:17;;;;;;;0.17;0.17;;;4.10;99.90;;;;;;5072497;28;20519;-81
2022/02/05 00:59:18;;;;;;;0.17;0.17;;;3.80;99.90;;;;;;5087621;28;20048;-81
2022/02/05 01:01:45;;;;;;;0.20;0.20;;;3.30;99.90;;;;;;5087669;28;20048;-85
2022/02/05 01:04:12;;;;;;;0.10;0.10;;;3.60;99.90;;;;;;5054494;28;20402;-85
2022/02/05 01:06:39;;;;;;;0.20;0.20;;;3.80;99.90;;;;;;5070791;28;20037;-81
2022/02/05 01:09:13;;;;;;;0.20;0.20;;;3.30;99.90;;;;;;5054508;28;20040;-81
2022/02/05 01:11:40;;;;;;;0.20;0.20;;;3.80;99.90;;;;;;5071070;28;20040;-85
2022/02/05 01:14:09;;;;;;;0.17;0.17;;;3.30;99.90;;;;;;5070528;28;20039;-81
2022/02/05 01:16:52;;;;;;;0.17;0.17;;;3.70;99.90;;;;;;5071197;28;20468;-85
2022/02/05 01:21:55;;;;;;;0.20;0.20;;;3.50;99.90;;;;;;5087962;28;20053;-85
2022/02/05 01:24:23;;;;;;;0.17;0.17;;;3.40;99.90;;;;;;5071024;28;20383;-85
2022/02/05 01:31:59;;;;;;;0.10;0.10;;;3.40;99.90;;;;;;5069924;28;20608;-85
2022/02/05 01:34:34;;;;;;;0.10;0.10;;;3.30;99.90;;;;;;5071075;28;20087;-80
2022/02/05 01:56:41;;;;;;;0.20;0.20;;;3.60;99.90;;;;;;5072258;28;20049;-86
2022/02/05 02:07:25;;;;;;;0.10;0.10;;;3.50;99.90;;;;;;5066398;28;20041;-81
2022/02/05 02:12:23;;;;;;;0.10;0.10;;;3.50;99.90;;;;;;5049769;28;20206;-85
2022/02/05 02:15:08;;;;;;;0.20;0.20;;;3.50;99.90;;;;;;5050609;28;20538;-85
2022/02/05 02:23:11;;;;;;;0.10;0.10;;;4.00;99.90;;;;;;5052245;28;20128;-85
2022/02/05 02:26:36;;;;;;;0.10;0.10;;;3.40;99.90;;;;;;5052349;28;20041;-81
2022/02/05 02:28:47;;;;;;;0.20;0.20;;;3.50;99.90;;;;;;5049872;28;20049;-85
2022/02/05 02:31:19;;;;;;;0.10;0.10;;;3.50;99.90;;;;;;5049798;28;20034;-81
2022/02/05 02:33:50;;;;;;;0.10;0.10;;;3.50;99.90;;;;;;5067455;28;20057;-85
2022/02/05 02:36:32;;;;;;;0.10;0.10;;;3.50;99.90;;;;;;5066946;28;20048;-81
2022/02/05 02:39:07;;;;;;;0.10;0.10;;;4.00;99.90;;;;;;5035458;28;20482;-81
2022/02/05 02:42:17;;;;;;;0.17;0.17;;;3.60;99.90;;;;;;5067022;28;20406;-85
2022/02/05 02:44:23;;;;;;;0.10;0.10;;;4.00;99.90;;;;;;5064048;28;20171;-81
2022/02/05 02:46:50;;;;;;;0.20;0.20;;;4.20;99.90;;;;;;5037320;28;20120;-81
2022/02/05 02:49:26;;;;;;;0.10;0.10;;;4.40;99.90;;;;;;5069824;28;20038;-85
2022/02/05 02:57:26;;;;;;;0.20;0.20;;;3.80;99.90;;;;;;5055812;28;20080;-85
2022/02/05 02:59:57;;;;;;;0.20;0.20;;;3.50;99.90;;;;;;5037178;28;20052;-81
2022/02/05 03:02:26;;;;;;;0.20;0.20;;;3.70;99.90;;;;;;5070195;28;20049;-81
2022/02/05 03:04:54;;;;;;;0.10;0.10;;;4.20;99.90;;;;;;5052986;28;20107;-85
2022/02/05 03:07:26;;;;;;;0.17;0.17;;;3.50;99.90;;;;;;5052868;28;20083;-81
2022/02/05 03:09:55;;;;;;;0.10;0.10;;;3.50;99.90;;;;;;5053182;28;20041;-85
2022/02/05 03:12:23;;;;;;;0.20;0.20;;;3.50;99.90;;;;;;5052746;28;20498;-85
2022/02/05 03:14:51;;;;;;;0.10;0.10;;;3.50;99.90;;;;;;5069718;28;20095;-85
2022/02/05 03:17:21;;;;;;;0.10;0.10;;;3.50;99.90;;;;;;5069073;28;20042;-85
2022/02/05 03:19:50;;;;;;;0.10;0.10;;;3.60;99.90;;;;;;5070020;28;20512;-85
2022/02/05 03:22:19;;;;;;;0.20;0.20;;;3.90;99.90;;;;;;5052653;28;20410;-81
2022/02/05 03:24:46;;;;;;;0.10;0.10;;;3.50;99.90;;;;;;5069922;28;20045;-85
2022/02/05 03:27:14;;;;;;;0.10;0.10;;;4.20;99.90;;;;;;5053230;28;20041;-84
2022/02/05 03:29:45;;;;;;;0.10;0.10;;;3.60;99.90;;;;;;5069600;28;20041;-81
2022/02/05 03:32:13;;;;;;;0.20;0.20;;;3.50;99.90;;;;;;5052787;28;20506;-85
2022/02/05 03:34:40;;;;;;;0.20;0.20;;;3.50;99.90;;;;;;5069403;28;20144;-85
2022/02/05 03:37:07;;;;;;;0.20;0.20;;;3.50;99.90;;;;;;5036935;28;20080;-85
2022/02/05 03:39:34;;;;;;;0.20;0.20;;;3.50;99.90;;;;;;5068839;28;20478;-86
2022/02/05 03:42:01;;;;;;;0.10;0.10;;;3.40;99.90;;;;;;5053050;28;20033;-81
2022/02/05 03:44:28;;;;;;;0.10;0.10;;;3.40;99.90;;;;;;5052357;28;20395;-85
2022/02/05 03:46:55;;;;;;;0.20;0.20;;;3.40;99.90;;;;;;5052682;28;20077;-85
2022/02/05 03:49:23;;;;;;;0.20;0.20;;;3.40;99.90;;;;;;5035859;28;20042;-85
2022/02/05 03:51:51;;;;;;;0.10;0.10;;;4.00;99.90;;;;;;5036109;28;20048;-85
2022/02/05 03:54:20;;;;;;;0.17;0.17;;;3.90;99.90;;;;;;5067905;28;20576;-81
2022/02/05 03:56:47;;;;;;;0.10;0.10;;;3.30;99.90;;;;;;5036417;28;20045;-81
2022/02/05 03:59:14;;;;;;;0.20;0.20;;;3.30;99.90;;;;;;5052296;28;20041;-85
2022/02/05 04:01:41;;;;;;;0.10;0.10;;;3.20;99.90;;;;;;5068429;28;20045;-84
2022/02/05 04:04:09;;;;;;;0.10;0.10;;;3.20;99.90;;;;;;5051883;28;20037;-81
2022/02/05 04:06:36;;;;;;;0.10;0.10;;;3.20;99.90;;;;;;5068401;28;20546;-81
2022/02/05 04:09:07;;;;;;;0.10;0.10;;;3.20;99.90;;;;;;5052001;28;20047;-81
2022/02/05 04:16:49;;;;;;;0.10;0.10;;;3.20;99.90;;;;;;5054867;28;20045;-81
2022/02/05 04:19:16;;;;;;;0.20;0.20;;;3.20;99.90;;;;;;5068228;28;20132;-81
2022/02/05 04:21:43;;;;;;;0.10;0.10;;;3.10;99.90;;;;;;5035160;28;20406;-85
2022/02/05 04:24:10;;;;;;;0.10;0.10;;;3.30;99.90;;;;;;5035286;28;20033;-81
2022/02/05 04:26:37;;;;;;;0.10;0.10;;;3.10;99.90;;;;;;5035229;28;20099;-85
2022/02/05 04:29:09;;;;;;;0.10;0.10;;;3.40;99.90;;;;;;5035561;28;20120;-85
2022/02/05 04:31:37;;;;;;;0.10;0.10;;;3.00;99.90;;;;;;5068311;28;20534;-81
2022/02/05 04:34:04;;;;;;;0.20;0.20;;;3.10;99.90;;;;;;5051644;28;20049;-81
2022/02/05 04:36:33;;;;;;;0.15;0.15;;;3.00;99.90;;;;;;5067756;28;20087;-85
2022/02/05 04:39:07;;;;;;;0.10;0.10;;;3.10;99.90;;;;;;5067868;28;20483;-85
2022/02/05 04:41:55;;;;;;;0.20;0.20;;;3.00;99.90;;;;;;5051227;28;20091;-85
2022/02/05 04:55:04;;;;;;;0.20;0.20;;;3.00;99.90;;;;;;5051109;28;20200;-85
2022/02/05 05:03:53;;;;;;;0.10;0.10;;;2.90;99.90;;;;;;5052113;28;20506;-85
2022/02/05 05:08:42;;;;;;;0.20;0.20;;;3.30;99.90;;;;;;5052173;28;20524;-85
2022/02/05 05:21:40;;;;;;;0.20;0.20;;;2.70;99.90;;;;;;5067125;28;20068;-85
2022/02/05 05:24:06;;;;;;;0.10;0.10;;;2.70;99.90;;;;;;5051144;28;20041;-85
2022/02/05 05:26:33;;;;;;;0.20;0.20;;;2.80;99.90;;;;;;5050456;28;20044;-81
2022/02/05 05:29:00;;;;;;;0.20;0.20;;;2.90;99.90;;;;;;5034345;28;20037;-85
2022/02/05 05:31:27;;;;;;;0.20;0.20;;;2.70;99.90;;;;;;5050616;28;20041;-81
2022/02/05 05:33:54;;;;;;;0.20;0.20;;;3.60;99.90;;;;;;5033956;28;20128;-81
2022/02/05 05:36:20;;;;;;;0.20;0.20;;;2.70;99.90;;;;;;5066886;28;20128;-85
2022/02/05 05:38:47;;;;;;;0.10;0.10;;;3.30;99.90;;;;;;5066451;28;20041;-81
2022/02/05 05:41:14;;;;;;;0.20;0.20;;;3.00;99.90;;;;;;5066623;28;20042;-81
2022/02/05 05:44:37;;;;;;;0.10;0.10;;;2.90;99.90;;;;;;5033304;28;20500;-81
2022/02/05 05:46:51;;;;;;;0.20;0.20;;;2.60;99.90;;;;;;5080927;28;20037;-81
2022/02/05 05:49:22;;;;;;;0.13;0.13;;;2.80;99.90;;;;;;5052942;28;20099;-81
2022/02/05 05:51:48;;;;;;;0.20;0.20;;;2.80;99.90;;;;;;5049829;28;20055;-81
2022/02/05 05:54:16;;;;;;;0.10;0.10;;;2.50;99.90;;;;;;5050269;28;20061;-85
2022/02/05 05:56:45;;;;;;;0.20;0.20;;;2.40;99.90;;;;;;5050068;28;20041;-85
2022/02/05 05:59:12;;;;;;;0.28;0.28;;;2.50;99.90;;;;;;5033818;28;20041;-85
2022/02/05 06:01:39;;;;;;;0.20;0.20;;;2.50;99.90;;;;;;5049551;28;20128;-85
2022/02/05 06:04:06;;;;;;;0.20;0.20;;;2.50;99.90;;;;;;5033608;28;20128;-85
2022/02/05 06:06:33;;;;;;;0.10;0.10;;;2.50;99.90;;;;;;5049734;28;20079;-81
2022/02/05 06:08:59;;;;;;;0.20;0.20;;;2.40;99.90;;;;;;5049749;28;20092;-81
2022/02/05 06:11:26;;;;;;;0.25;0.25;;;3.10;99.90;;;;;;5066319;28;20049;-81
2022/02/05 06:13:53;;;;;;;0.20;0.20;;;2.40;99.90;;;;;;5033471;28;20041;-85
2022/02/05 06:16:27;;;;;;;0.20;0.20;;;2.40;99.90;;;;;;5033363;28;20410;-85
2022/02/05 06:18:54;;;;;;;0.20;0.20;;;2.70;99.90;;;;;;5050448;28;20060;-85
2022/02/05 06:21:21;;;;;;;0.20;0.20;;;2.40;99.90;;;;;;5033294;28;20072;-81
2022/02/05 06:23:48;;;;;;;0.20;0.20;;;2.40;99.90;;;;;;5049400;28;20040;-85
2022/02/05 06:26:14;;;;;;;0.20;0.20;;;2.40;99.90;;;;;;5049512;28;20080;-81
2022/02/05 06:28:41;;;;;;;0.10;0.10;;;2.40;99.90;;;;;;5065967;28;20052;-81
2022/02/05 06:31:08;;;;;;;0.20;0.20;;;2.40;99.90;;;;;;5065945;28;20045;-81
2022/02/05 06:33:35;;;;;;;0.20;0.20;;;2.40;99.90;;;;;;5049943;28;20041;-80
2022/02/05 06:36:01;;;;;;;0.20;0.20;;;3.40;99.90;;;;;;5049045;28;20072;-85
2022/02/05 06:38:28;;;;;;;0.20;0.20;;;2.40;99.90;;;;;;5066126;28;20042;-81
2022/02/05 06:40:55;;;;;;;0.20;0.20;;;2.50;99.90;;;;;;5065674;28;20133;-85
2022/02/05 06:43:21;;;;;;;0.20;0.20;;;2.40;99.90;;;;;;5065951;28;20080;-84
2022/02/05 06:45:48;;;;;;;0.10;0.10;;;2.50;99.90;;;;;;5065670;28;20041;-81
2022/02/05 06:48:15;;;;;;;0.20;0.20;;;2.30;99.90;;;;;;5032913;28;20038;-85
2022/02/05 06:50:42;;;;;;;0.20;0.20;;;3.00;99.90;;;;;;5082176;28;20046;-85
2022/02/05 06:53:08;;;;;;;0.17;0.17;;;2.30;99.90;;;;;;5050538;28;20110;-85
2022/02/05 06:55:35;;;;;;;0.20;0.20;;;2.30;99.90;;;;;;5065458;28;20053;-81
2022/02/05 06:58:02;;;;;;;0.20;0.20;;;2.30;99.90;;;;;;5065442;28;20115;-81
2022/02/05 07:00:29;;;;;;;0.10;0.10;;;2.30;99.90;;;;;;5065407;28;20509;-85
2022/02/05 07:02:55;;;;;;;0.20;0.20;;;2.30;99.90;;;;;;5065464;28;20042;-81
2022/02/05 07:05:22;;;;;;;0.20;0.20;;;2.30;99.90;;;;;;5049144;28;20124;-85
2022/02/05 07:07:49;;;;;;;0.20;0.20;;;2.30;99.90;;;;;;5032853;28;20037;-85
2022/02/05 07:10:16;;;;;;;0.20;0.20;;;2.40;99.90;;;;;;5048831;28;20041;-85
2022/02/05 07:13:03;;;;;;;0.20;0.20;;;2.40;99.90;;;;;;5048915;28;20052;-81
2022/02/05 07:15:34;;;;;;;0.20;0.20;;;2.40;99.90;;;;;;5088186;28;20048;-86
2022/02/05 07:18:27;;;;;;;0.20;0.20;;;2.40;99.90;;;;;;5053315;28;20041;-81
2022/02/05 07:21:06;;;;;;;0.20;0.20;;;2.40;99.90;;;;;;5055847;28;20044;-84
2022/02/05 07:31:30;;;;;;;0.20;0.20;;;2.80;99.90;;;;;;5055442;28;20136;-80
2022/02/05 07:33:59;;;;;;;0.10;0.10;;;2.40;99.90;;;;;;5052725;28;20128;-85
2022/02/05 07:36:26;;;;;;;0.20;0.20;;;2.30;99.90;;;;;;5069781;28;20498;-85
2022/02/05 07:38:53;;;;;;;0.20;0.20;;;2.30;99.90;;;;;;5052507;28;20056;-84
2022/02/05 07:41:19;;;;;;;0.20;0.20;;;2.30;99.90;;;;;;5036270;28;20045;-81
2022/02/05 07:43:46;;;;;;;0.20;0.20;;;2.60;99.90;;;;;;5035949;28;20049;-82
2022/02/05 07:46:13;;;;;;;0.20;0.20;;;2.30;99.90;;;;;;5052430;28;20605;-85
2022/02/05 07:48:40;;;;;;;0.20;0.20;;;2.30;99.90;;;;;;5052550;28;20052;-85
2022/02/05 07:51:08;;;;;;;0.20;0.20;;;2.40;99.90;;;;;;5036145;28;20046;-81
2022/02/05 07:53:35;;;;;;;0.20;0.20;;;2.30;99.90;;;;;;5036495;28;20048;-81
2022/02/05 07:56:04;;;;;;;0.20;0.20;;;2.30;99.90;;;;;;5035854;28;20045;-81
2022/02/05 07:58:31;;;;;;;0.10;0.10;;;2.30;99.90;;;;;;5036384;28;20041;-81
2022/02/05 08:00:58;;;;;;;0.20;0.20;;;2.40;99.90;;;;;;5035628;28;20132;-81
2022/02/05 08:03:25;;;;;;;0.20;0.20;;;2.30;99.90;;;;;;5035747;28;20073;-81
2022/02/05 08:05:52;;;;;;;0.10;0.10;;;2.30;99.90;;;;;;5040545;28;20033;-84
2022/02/05 08:08:22;;;;;;;0.13;0.13;;;2.30;99.90;;;;;;5038350;28;20115;-84
2022/02/05 08:11:13;;;;;;;0.20;0.20;;;2.70;99.90;;;;;;5056436;28;20033;-85
2022/02/05 08:13:36;;;;;;;0.10;0.10;;;2.70;99.90;;;;;;5040682;28;20061;-85
2022/02/05 08:16:29;;;;;;;0.20;0.20;;;2.40;99.90;;;;;;5018731;28;20045;-81
2022/02/05 08:18:56;;;;;;;0.20;0.20;;;2.40;99.90;;;;;;5066301;28;20060;-87
2022/02/05 08:21:23;;;;;;;0.10;0.10;;;2.50;99.90;;;;;;5035019;28;20045;-86
2022/02/05 08:23:49;;;;;;;0.20;0.20;;;2.50;99.90;;;;;;5049593;28;20044;-81
2022/02/05 08:26:16;;;;;;;0.20;0.20;;;2.20;99.90;;;;;;5037404;28;20391;-81
2022/02/05 08:28:44;;;;;;;0.10;0.10;;;2.50;99.90;;;;;;5067893;28;20518;-85
2022/02/05 08:31:10;;;;;;;0.10;0.10;;;2.50;99.90;;;;;;5035008;28;20140;-81
2022/02/05 08:33:42;;;;;;;0.10;0.10;;;2.50;99.90;;;;;;5067432;28;20124;-80
2022/02/05 08:36:09;;;;;;;0.10;0.10;;;2.50;99.90;;;;;;5071501;28;20041;-85
2022/02/05 08:38:35;;;;;;;0.10;0.10;;;2.60;99.90;;;;;;5062901;28;20120;-81
2022/02/05 08:41:02;;;;;;;0.73;0.68;;;2.60;99.90;;;;;;5066957;28;20037;-81
2022/02/05 08:43:30;;;;;;;0.20;0.20;;;3.10;99.90;;;;;;5051098;28;20041;-85
2022/02/05 08:45:58;;;;;;;0.20;0.20;;;2.70;99.90;;;;;;5067052;28;20108;-83
2022/02/05 08:48:26;;;;;;;0.10;0.10;;;2.70;99.90;;;;;;5034944;28;20120;-86
2022/02/05 08:50:52;;;;;;;0.20;0.20;;;2.80;99.90;;;;;;5044769;28;20076;-82
2022/02/05 08:53:21;;;;;;;0.20;0.20;;;2.90;99.90;;;;;;5050839;28;20069;-85
2022/02/05 08:55:49;;;;;;;0.10;0.10;;;3.50;99.90;;;;;;5031031;28;20140;-81
2022/02/05 08:58:16;;;;;;;0.20;0.20;;;3.00;99.90;;;;;;5048571;28;20132;-85
2022/02/05 09:00:48;;;;;;;0.20;0.20;;;3.10;99.90;;;;;;5050723;28;20053;-85
2022/02/05 09:03:32;;;;;;;0.10;0.10;;;3.10;99.90;;;;;;5034697;28;20045;-85
2022/02/05 09:06:01;;;;;;;0.10;0.10;;;3.60;99.90;;;;;;5050554;28;20120;-81
2022/02/05 09:08:32;;;;;;;0.10;0.10;;;3.40;99.90;;;;;;5066807;28;20116;-85
2022/02/05 09:11:10;;;;;;;0.10;0.10;;;3.50;99.90;;;;;;5050426;28;20045;-85
2022/02/05 09:16:12;;;;;;;0.20;0.20;;;3.90;99.90;;;;;;5067368;28;20041;-86
2022/02/05 09:18:41;;;;;;;0.10;0.10;;;3.90;99.90;;;;;;5051017;28;20064;-86
2022/02/05 09:21:08;;;;;;;0.15;0.15;;;3.90;99.90;;;;;;5033264;28;20536;-86
2022/02/05 09:23:41;;;;;;;0.10;0.10;;;3.90;99.90;;;;;;5034196;28;20033;-85
2022/02/05 09:26:08;;;;;;;0.10;0.10;;;4.00;99.90;;;;;;5050430;28;20095;-81
2022/02/05 09:28:35;;;;;;;0.10;0.10;;;4.00;99.90;;;;;;5050423;28;20067;-86
2022/02/05 09:33:37;;;;;;;0.10;0.10;;;4.00;99.90;;;;;;5050941;28;20048;-84
2022/02/05 09:36:07;;;;;;;0.10;0.10;;;4.60;99.90;;;;;;5049674;28;20127;-82
2022/02/05 09:38:34;;;;;;;0.13;0.13;;;4.10;99.90;;;;;;5049919;28;20048;-86
2022/02/05 09:41:01;;;;;;;0.10;0.10;;;4.20;99.90;;;;;;5050138;28;20041;-82
2022/02/05 09:43:29;;;;;;;0.10;0.10;;;4.20;99.90;;;;;;5032925;28;20033;-85
2022/02/05 09:45:57;;;;;;;0.10;0.10;;;4.60;99.90;;;;;;5033604;28;20175;-85
2022/02/05 09:48:27;;;;;;;0.10;0.10;;;4.30;99.90;;;;;;5049952;28;20081;-85
2022/02/05 09:50:55;;;;;;;0.10;0.10;;;4.40;99.90;;;;;;5026539;28;20056;-81
2022/02/05 09:53:22;;;;;;;0.10;0.10;;;4.40;99.90;;;;;;5056172;28;20046;-87
2022/02/05 09:55:50;;;;;;;0.10;0.10;;;4.50;99.90;;;;;;5050754;28;20064;-86
2022/02/05 09:58:18;;;;;;;0.10;0.10;;;4.60;99.90;;;;;;5049386;28;20053;-82
2022/02/05 10:01:18;;;;;;;0.10;0.10;;;5.30;99.90;;;;;;5049321;28;20124;-81
2022/02/05 10:03:47;;;;;;;0.10;0.10;;;4.70;99.90;;;;;;5050639;28;20116;-82
2022/02/05 10:06:28;;;;;;;0.10;0.10;;;4.70;99.90;;;;;;5041289;28;20040;-82
2022/02/05 10:09:08;;;;;;;0.10;0.10;;;4.80;99.90;;;;;;5075408;28;20045;-85
2022/02/05 10:11:46;;;;;;;0.10;0.10;;;4.90;99.90;;;;;;5061182;28;20056;-82
2022/02/05 10:14:14;;;;;;;0.10;0.10;;;5.00;99.90;;;;;;5065588;28;20037;-82
2022/02/05 10:16:41;;;;;;;0.10;0.10;;;5.10;99.90;;;;;;5049285;28;20388;-82
2022/02/05 10:19:08;;;;;;;0.10;0.10;;;5.10;99.90;;;;;;5032456;28;20187;-86
2022/02/05 10:21:34;;;;;;;0.10;0.10;;;5.10;99.90;;;;;;5032767;28;20049;-82
2022/02/05 10:24:06;;;;;;;0.20;0.20;;;5.60;99.90;;;;;;5032764;28;20414;-82
2022/02/05 10:26:46;;;;;;;0.43;0.43;;;5.20;99.90;;;;;;5036057;28;20056;-85
2022/02/05 10:29:16;;;;;;;0.10;0.10;;;5.50;99.90;;;;;;5060754;28;20037;-83
2022/02/05 10:32:14;;;;;;;0.10;0.10;;;5.60;99.90;;;;;;5051890;28;20075;-81
2022/02/05 10:35:15;;;;;;;0.10;0.10;;;5.30;99.90;;;;;;5047106;28;20513;-83
2022/02/05 10:37:46;;;;;;;0.10;0.10;;;5.40;99.90;;;;;;5033462;28;20045;-82
2022/02/05 10:40:21;;;;;;;0.10;0.10;;;5.40;99.90;;;;;;5048658;28;20133;-82
2022/02/05 10:43:03;;;;;;;0.10;0.10;;;5.50;99.90;;;;;;5065330;28;20041;-82
2022/02/05 10:45:48;;;;;;;0.10;0.10;;;5.50;99.90;;;;;;5051419;28;20065;-82
2022/02/05 10:48:20;;;;;;;0.10;0.10;;;5.50;99.90;;;;;;5065472;28;20052;-85
2022/02/05 10:50:49;;;;;;;0.10;0.10;;;5.50;99.90;;;;;;5049317;28;20045;-83
2022/02/05 10:53:25;;;;;;;0.10;0.10;;;5.50;99.90;;;;;;5048517;28;20067;-85
2022/02/05 11:07:17;;;;;;;0.10;0.10;;;5.50;99.90;;;;;;5069433;28;20037;-85
2022/02/05 11:09:56;;;;;;;0.10;0.10;;;5.50;99.90;;;;;;5053359;28;20041;-82
2022/02/05 11:18:27;;;;;;;0.03;0.03;;;5.50;99.90;;;;;;5023691;28;20042;-86
2022/02/05 11:20:57;;;;;;;0.10;0.10;;;5.50;99.90;;;;;;5051865;28;20063;-82
2022/02/05 11:23:27;;;;;;;0.10;0.10;;;5.60;99.90;;;;;;5055288;28;20045;-86
2022/02/05 11:25:56;;;;;;;0.10;0.10;;;6.20;99.90;;;;;;5053350;28;20073;-81
2022/02/05 11:28:43;;;;;;;0.10;0.10;;;5.70;99.90;;;;;;5069383;28;20041;-81
2022/02/05 11:31:44;;;;;;;0.10;0.10;;;5.70;99.90;;;;;;5052144;28;20859;-87
2022/02/05 11:34:37;;;;;;;0.00;0.00;;;5.80;99.90;;;;;;5068209;28;20045;-86
2022/02/05 11:37:05;;;;;;;0.10;0.10;;;5.80;99.90;;;;;;5052751;28;20049;-81
2022/02/05 11:39:48;;;;;;;0.10;0.10;;;5.70;99.90;;;;;;5058259;28;20123;-82
2022/02/05 11:42:34;;;;;;;0.00;0.00;;;5.70;99.90;;;;;;5070222;28;20077;-81
2022/02/05 11:45:24;;;;;;;0.10;0.10;;;5.60;99.90;;;;;;5032372;28;20038;-86
2022/02/05 11:47:50;;;;;;;0.10;0.10;;;5.60;99.90;;;;;;5032472;28;20406;-81
2022/02/05 11:50:19;;;;;;;0.10;0.10;;;5.60;99.90;;;;;;5053795;28;20183;-81
2022/02/05 11:52:46;;;;;;;0.10;0.10;;;5.70;99.90;;;;;;5052936;28;20103;-81
2022/02/05 11:55:15;;;;;;;0.10;0.10;;;6.00;99.90;;;;;;5051433;28;20053;-81
2022/02/05 11:57:45;;;;;;;0.00;0.00;;;5.70;99.90;;;;;;5052722;28;20052;-86
2022/02/05 12:00:24;;;;;;;0.10;0.10;;;5.70;99.90;;;;;;5052138;28;20049;-86
2022/02/05 12:03:03;;;;;;;0.00;0.00;;;5.70;99.90;;;;;;5052791;28;20160;-86
2022/02/05 12:05:36;;;;;;;0.10;0.10;;;5.70;99.90;;;;;;5069911;28;20408;-81
2022/02/05 12:08:06;;;;;;;0.10;0.10;;;5.70;99.90;;;;;;5052064;28;20041;-81
2022/02/05 12:10:36;;;;;;;2.10;0.38;;;5.70;99.90;;;;;;5067666;28;20132;-87
2022/02/05 12:13:22;;;;;;;0.10;0.10;;;5.70;99.90;;;;;;5052344;28;20045;-87
2022/02/05 12:15:55;;;;;;;0.10;0.10;;;5.70;99.90;;;;;;5068518;28;20046;-81
2022/02/05 12:18:27;;;;;;;0.10;0.10;;;5.70;99.90;;;;;;5051498;28;20042;-81
2022/02/05 12:20:56;;;;;;;0.10;0.10;;;5.80;99.90;;;;;;5052195;28;20045;-86
2022/02/05 12:26:30;;;;;;;0.10;0.10;;;5.80;99.90;;;;;;5042296;28;20099;-81
2022/02/05 12:29:00;;;;;;;0.00;0.00;;;5.80;99.90;;;;;;5051784;28;20046;-81
2022/02/05 12:31:34;;;;;;;0.00;0.00;;;5.90;99.90;;;;;;5036087;28;20107;-81
2022/02/05 12:34:12;;;;;;;0.10;0.10;;;5.80;99.90;;;;;;5051385;28;20037;-86
2022/02/05 12:36:43;;;;;;;0.10;0.10;;;5.90;99.90;;;;;;5051738;28;20124;-86
2022/02/05 12:39:15;;;;;;;0.10;0.10;;;6.00;99.90;;;;;;5045436;28;20128;-81
2022/02/05 12:41:53;;;;;;;0.10;0.10;;;6.00;99.90;;;;;;5067701;28;20069;-86
2022/02/05 12:44:22;;;;;;;0.10;0.10;;;6.00;99.90;;;;;;5068879;28;20140;-86
2022/02/05 12:47:03;;;;;;;0.10;0.10;;;6.10;99.90;;;;;;5067670;28;20044;-81
2022/02/05 12:49:46;;;;;;;0.10;0.10;;;6.40;99.90;;;;;;5051892;28;20041;-81
2022/02/05 12:52:13;;;;;;;0.10;0.10;;;6.10;99.90;;;;;;5049216;28;20168;-83
2022/02/05 12:54:50;;;;;;;0.10;0.10;;;6.10;99.90;;;;;;5042466;28;20068;-88
2022/02/05 12:57:19;;;;;;;0.10;0.10;;;6.20;99.90;;;;;;5050001;28;20053;-81
2022/02/05 12:59:47;;;;;;;0.08;0.08;;;6.60;99.90;;;;;;5051073;28;20045;-81
2022/02/05 13:02:16;;;;;;;0.10;0.10;;;6.70;99.90;;;;;;5050409;28;20033;-82
2022/02/05 13:04:48;;;;;;;0.10;0.10;;;6.10;99.90;;;;;;5067417;28;20037;-81
2022/02/05 13:07:21;;;;;;;0.10;0.10;;;6.10;99.90;;;;;;5050607;28;20091;-85
2022/02/05 13:09:56;;;;;;;0.10;0.10;;;6.20;99.90;;;;;;5048866;28;20037;-86
2022/02/05 13:12:43;;;;;;;0.10;0.10;;;6.20;99.90;;;;;;5067038;28;20560;-81
2022/02/05 13:34:26;;;;;;;0.10;0.10;;;6.30;99.90;;;;;;5075571;28;20045;-82
2022/02/05 13:37:13;;;;;;;0.10;0.10;;;6.30;99.90;;;;;;5039211;28;20045;-81
2022/02/05 13:42:20;;;;;;;0.10;0.10;;;6.40;99.90;;;;;;5066523;28;20053;-86
2022/02/05 13:47:23;;;;;;;0.10;0.10;;;6.40;99.90;;;;;;5075365;28;20053;-85
2022/02/05 13:50:10;;;;;;;0.10;0.10;;;6.40;99.90;;;;;;5063102;28;20662;-87
2022/02/05 13:52:43;;;;;;;0.10;0.10;;;6.50;99.90;;;;;;5058263;28;20045;-81
2022/02/05 13:55:14;;;;;;;0.10;0.10;;;6.50;99.90;;;;;;5071633;28;20065;-87
2022/02/05 13:57:54;;;;;;;0.10;0.10;;;6.70;99.90;;;;;;5066979;28;20120;-81
2022/02/05 14:00:22;;;;;;;0.10;0.10;;;6.60;99.90;;;;;;5069395;28;20127;-81
2022/02/05 14:02:59;;;;;;;0.10;0.10;;;6.60;99.90;;;;;;5043005;28;20037;-82
2022/02/05 14:05:26;;;;;;;0.10;0.10;;;6.60;99.90;;;;;;5058377;28;20037;-81
2022/02/05 14:07:52;;;;;;;0.10;0.10;;;6.50;99.90;;;;;;5050129;28;20033;-86
2022/02/05 14:10:22;;;;;;;0.10;0.10;;;6.50;99.90;;;;;;5045979;28;20041;-85
2022/02/05 14:12:54;;;;;;;0.10;0.10;;;6.50;99.90;;;;;;5061482;28;20071;-86
2022/02/05 14:15:23;;;;;;;0.10;0.10;;;6.40;99.90;;;;;;5069479;28;20041;-82
2022/02/05 14:18:10;;;;;;;0.10;0.10;;;6.50;99.90;;;;;;5070040;28;20037;-82
2022/02/05 14:21:08;;;;;;;0.10;0.10;;;6.40;99.90;;;;;;5069697;28;20057;-81
2022/02/05 14:23:35;;;;;;;0.10;0.10;;;6.40;99.90;;;;;;5069225;28;20041;-90
2022/02/05 14:28:51;;;;;;;0.00;0.00;;;6.50;99.90;;;;;;5086033;28;20063;-81
2022/02/05 14:42:08;;;;;;;0.10;0.10;;;6.60;99.90;;;;;;5072323;28;20072;-81
2022/02/05 14:44:36;;;;;;;0.10;0.10;;;6.60;99.90;;;;;;5069664;28;20134;-81
2022/02/05 14:47:04;;;;;;;0.10;0.10;;;6.60;99.90;;;;;;5052347;28;20041;-86
2022/02/05 14:49:31;;;;;;;0.10;0.10;;;6.60;99.90;;;;;;5053221;28;20128;-81
2022/02/05 14:52:01;;;;;;;0.10;0.10;;;6.60;99.90;;;;;;5069802;28;20036;-87
2022/02/05 14:54:29;;;;;;;0.10;0.10;;;6.60;99.90;;;;;;5068425;28;20041;-87
2022/02/05 14:56:56;;;;;;;0.10;0.10;;;6.60;99.90;;;;;;5053071;28;20045;-86
2022/02/05 14:59:23;;;;;;;0.10;0.10;;;6.60;99.90;;;;;;5052845;28;20041;-87
2022/02/05 15:01:50;;;;;;;0.10;0.10;;;6.60;99.90;;;;;;5068384;28;20417;-81
2022/02/05 15:04:17;;;;;;;0.00;0.00;;;6.50;99.90;;;;;;5085297;28;20051;-86
2022/02/05 15:06:46;;;;;;;0.10;0.10;;;6.60;99.90;;;;;;5052558;28;20074;-80
2022/02/05 15:09:14;;;;;;;0.10;0.10;;;6.50;99.90;;;;;;5069691;28;20037;-86
2022/02/05 15:11:41;;;;;;;0.10;0.10;;;6.50;99.90;;;;;;5052098;28;20045;-80
2022/02/05 15:14:07;;;;;;;0.10;0.10;;;6.50;99.90;;;;;;5069184;28;20060;-80
2022/02/05 15:16:36;;;;;;;0.10;0.10;;;6.60;99.90;;;;;;5069060;28;20037;-86
2022/02/05 15:19:05;;;;;;;0.10;0.10;;;6.40;99.90;;;;;;5068930;28;20090;-87
2022/02/05 15:21:35;;;;;;;0.00;0.00;;;6.40;99.90;;;;;;5085360;28;20041;-81
2022/02/05 15:24:03;;;;;;;0.10;0.10;;;6.40;99.90;;;;;;5053126;28;20040;-87
2022/02/05 15:26:35;;;;;;;0.10;0.10;;;6.40;99.90;;;;;;5069063;28;20114;-81
2022/02/05 15:29:07;;;;;;;0.10;0.10;;;6.40;99.90;;;;;;5069310;28;20045;-86
2022/02/05 15:31:43;;;;;;;0.08;0.08;;;6.30;99.90;;;;;;5068829;28;20498;-88
2022/02/05 15:34:10;;;;;;;0.10;0.10;;;6.30;99.90;;;;;;5068680;28;20051;-81
2022/02/05 15:36:56;;;;;;;0.10;0.10;;;6.30;99.90;;;;;;5052005;28;20044;-81
2022/02/05 15:39:51;;;;;;;;;;;6.30;99.90;;;;;;5045380;28;20048;-85
2022/02/05 15:44:55;;;;;;;0.10;0.10;;;6.20;99.90;;;;;;5050998;28;20076;-86
2022/02/05 15:47:23;;;;;;;0.10;0.10;;;6.20;99.90;;;;;;5048415;28;20071;-83
2022/02/05 15:49:49;;;;;;;0.10;0.10;;;6.20;99.90;;;;;;5048251;28;20150;-86
2022/02/05 15:52:16;;;;;;;0.10;0.10;;;6.20;99.90;;;;;;5034178;28;20136;-83
2022/02/05 15:54:43;;;;;;;0.10;0.10;;;6.20;99.90;;;;;;5050963;28;20056;-85
2022/02/05 16:02:11;;;;;;;0.10;0.10;;;6.10;99.90;;;;;;5052306;28;20390;-85
2022/02/05 16:04:37;;;;;;;0.10;0.10;;;6.20;99.90;;;;;;5051626;28;20082;-85
2022/02/05 16:07:04;;;;;;;0.10;0.10;;;6.10;99.90;;;;;;5035522;28;20140;-85
2022/02/05 16:09:31;;;;;;;0.08;0.08;;;6.10;99.90;;;;;;5051832;28;20041;-85
2022/02/05 16:11:58;;;;;;;0.10;0.10;;;6.10;99.90;;;;;;5034330;28;20076;-86
2022/02/05 16:14:24;;;;;;;0.00;0.00;;;6.10;99.90;;;;;;5067289;28;20116;-81
2022/02/05 16:16:52;;;;;;;0.10;0.10;;;6.10;99.90;;;;;;5049688;28;20124;-83
2022/02/05 16:19:18;;;;;;;0.10;0.10;;;6.10;99.90;;;;;;5050477;28;20100;-86
2022/02/05 16:21:45;;;;;;;0.10;0.10;;;6.10;99.90;;;;;;5050623;28;20512;-86
2022/02/05 16:24:12;;;;;;;0.10;0.10;;;6.10;99.90;;;;;;5068161;28;20056;-86
2022/02/05 16:26:38;;;;;;;0.20;0.20;;;6.10;99.90;;;;;;5051522;28;20042;-82
2022/02/05 16:29:08;;;;;;;0.10;0.10;;;6.10;99.90;;;;;;5068322;28;20157;-87
2022/02/05 16:31:35;;;;;;;0.10;0.10;;;6.10;99.90;;;;;;5067660;28;20103;-87
2022/02/05 16:34:09;;;;;;;0.10;0.10;;;6.60;99.90;;;;;;5034481;28;20046;-86